createdAt,value
2024-04-09T00:00:00.754Z,55
2024-04-09T00:10:00.514Z,55
2024-04-09T00:20:00.619Z,55
2024-04-09T00:30:00.702Z,55
2024-04-09T00:40:01.125Z,56
2024-04-09T00:50:00.534Z,55
2024-04-09T01:00:00.897Z,56
2024-04-09T01:10:00.600Z,56
2024-04-09T01:20:00.600Z,57
2024-04-09T01:30:00.661Z,58
2024-04-09T01:40:00.666Z,57
2024-04-09T01:50:00.557Z,58
2024-04-09T02:00:01.045Z,57
2024-04-09T02:10:00.614Z,58
2024-04-09T02:20:00.583Z,58
2024-04-09T02:30:00.696Z,57
2024-04-09T02:40:00.909Z,58
2024-04-09T02:50:00.610Z,57
2024-04-09T03:00:00.867Z,58
2024-04-09T03:10:00.593Z,58
2024-04-09T03:20:00.574Z,59
2024-04-09T03:30:00.604Z,58
2024-04-09T03:40:00.678Z,58
2024-04-09T03:50:00.532Z,58
2024-04-09T04:00:00.718Z,58
2024-04-09T04:10:00.597Z,59
2024-04-09T04:20:00.620Z,58
2024-04-09T04:30:00.712Z,58
2024-04-09T04:40:00.647Z,58
2024-04-09T04:50:00.597Z,57
2024-04-09T05:00:00.718Z,57
2024-04-09T05:10:00.550Z,57
2024-04-09T05:20:00.593Z,57
2024-04-09T05:30:00.680Z,55
2024-04-09T05:40:00.636Z,56
2024-04-09T05:50:00.587Z,54
2024-04-09T06:00:00.786Z,47
2024-04-09T06:10:00.884Z,45
2024-04-09T06:20:00.841Z,42
2024-04-09T06:30:00.821Z,42
2024-04-09T06:40:00.688Z,35
2024-04-09T06:50:00.607Z,35
2024-04-09T07:00:00.754Z,39
2024-04-09T07:10:00.563Z,40
2024-04-09T07:20:00.589Z,42
2024-04-09T07:30:00.703Z,42
2024-04-09T07:40:00.664Z,42
2024-04-09T07:50:00.591Z,40
2024-04-09T08:00:00.906Z,40
2024-04-09T08:10:00.769Z,41
2024-04-09T08:20:00.850Z,41
2024-04-09T08:30:00.868Z,42
2024-04-09T08:40:04.760Z,40
2024-04-09T08:50:02.773Z,40
2024-04-09T09:00:00.522Z,40
2024-04-09T09:10:00.536Z,39
2024-04-09T09:20:04.167Z,39
2024-04-09T09:30:00.333Z,39
2024-04-09T09:40:00.579Z,40
2024-04-09T09:50:10.181Z,38
2024-04-09T10:00:00.700Z,38
2024-04-09T10:10:00.490Z,38
2024-04-09T10:20:00.513Z,37
2024-04-09T10:30:00.462Z,35
2024-04-09T10:40:00.503Z,35
2024-04-09T10:50:00.270Z,34
2024-04-09T11:00:00.469Z,33
2024-04-09T11:10:00.489Z,32
2024-04-09T11:20:00.295Z,32
2024-04-09T11:30:00.489Z,32
2024-04-09T11:40:00.555Z,31
2024-04-09T11:50:00.418Z,33
2024-04-09T12:00:00.478Z,32
2024-04-09T12:10:00.270Z,31
2024-04-09T12:20:00.369Z,33
2024-04-09T12:30:00.631Z,33
2024-04-09T12:40:00.326Z,33
2024-04-09T12:50:00.650Z,31
2024-04-09T13:00:14.183Z,32
2024-04-09T13:10:00.464Z,33
2024-04-09T13:20:00.341Z,31
2024-04-09T13:30:00.374Z,31
2024-04-09T13:40:00.344Z,31
2024-04-09T13:50:00.336Z,32
2024-04-09T14:00:00.424Z,32
2024-04-09T14:10:00.236Z,33
2024-04-09T14:20:00.317Z,34
2024-04-09T14:30:00.572Z,34
2024-04-09T14:40:00.371Z,34
2024-04-09T14:50:00.377Z,34
2024-04-09T15:00:00.330Z,35
2024-04-09T15:10:01.383Z,34
2024-04-09T15:20:00.329Z,35
2024-04-09T15:30:02.029Z,35
2024-04-09T15:40:00.448Z,36
2024-04-09T15:50:00.381Z,36
2024-04-09T16:00:00.446Z,37
2024-04-09T16:10:00.621Z,38
2024-04-09T16:20:00.381Z,39
2024-04-09T16:30:00.410Z,38
2024-04-09T16:40:00.362Z,39
2024-04-09T16:50:00.531Z,39
2024-04-09T17:00:00.502Z,41
2024-04-09T17:10:00.295Z,44
2024-04-09T17:20:00.444Z,42
2024-04-09T17:30:00.313Z,43
2024-04-09T17:40:00.511Z,45
2024-04-09T17:50:00.398Z,47
2024-04-09T18:00:00.467Z,49
2024-04-09T18:10:00.300Z,49
2024-04-09T18:20:00.286Z,49
2024-04-09T18:30:00.300Z,50
2024-04-09T18:40:00.802Z,50
2024-04-09T18:50:00.316Z,51
2024-04-09T19:00:00.352Z,52
2024-04-09T19:10:00.271Z,52
2024-04-09T19:20:00.361Z,54
2024-04-09T19:30:00.306Z,53
2024-04-09T19:40:02.168Z,54
2024-04-09T19:50:00.496Z,54
2024-04-09T20:00:02.195Z,54
2024-04-09T20:10:00.274Z,54
2024-04-09T20:20:00.363Z,55
2024-04-09T20:30:00.278Z,55
2024-04-09T20:40:00.378Z,56
2024-04-09T20:50:00.331Z,57
2024-04-09T21:00:00.560Z,56
2024-04-09T21:10:00.296Z,55
2024-04-09T21:20:00.541Z,55
2024-04-09T21:30:00.268Z,57
2024-04-09T21:40:00.530Z,56
2024-04-09T21:50:00.365Z,56
2024-04-09T22:00:00.493Z,55
2024-04-09T22:10:00.309Z,56
2024-04-09T22:20:00.351Z,56
2024-04-09T22:30:00.360Z,56
2024-04-09T22:40:00.408Z,56
2024-04-09T22:50:00.567Z,57
2024-04-09T23:00:00.557Z,57
2024-04-09T23:10:00.289Z,58
2024-04-09T23:20:00.485Z,58
2024-04-09T23:30:00.250Z,55
2024-04-09T23:40:00.417Z,55
2024-04-09T23:50:00.402Z,55
